createdAt,value
2023-02-04T00:02:07.398Z,2.45
2023-02-04T00:07:45.750Z,2.38
2023-02-04T00:10:35.285Z,2.29
2023-02-04T00:13:03.318Z,2.21
2023-02-04T00:15:30.498Z,2.11
2023-02-04T00:17:57.437Z,2.06
2023-02-04T00:20:24.197Z,1.99
2023-02-04T00:22:51.339Z,1.92
2023-02-04T00:25:18.336Z,1.93
2023-02-04T00:27:45.352Z,1.88
2023-02-04T00:30:13.193Z,1.84
2023-02-04T00:32:41.034Z,1.77
2023-02-04T00:35:08.800Z,1.72
2023-02-04T00:37:35.645Z,1.59
2023-02-04T00:40:05.091Z,1.57
2023-02-04T00:42:32.104Z,1.58
2023-02-04T00:44:59.125Z,1.53
2023-02-04T00:47:26.026Z,1.45
2023-02-04T00:49:52.918Z,1.36
2023-02-04T00:52:19.856Z,1.33
2023-02-04T00:54:47.511Z,1.29
2023-02-04T00:57:14.525Z,1.27
2023-02-04T00:59:41.597Z,1.23
2023-02-04T01:02:08.592Z,1.11
2023-02-04T01:04:35.471Z,1.07
2023-02-04T01:07:02.436Z,1.06
2023-02-04T01:37:18.574Z,0.31
2023-02-04T01:39:45.981Z,0.18
2023-02-04T01:42:13.762Z,0.08
2023-02-04T01:44:40.911Z,0.01
2023-02-04T01:47:09.410Z,-0.06
2023-02-04T01:49:36.142Z,-0.07
2023-02-04T01:52:04.054Z,-0.13
2023-02-04T01:54:31.804Z,-0.14
2023-02-04T01:56:59.832Z,-0.19
2023-02-04T01:59:27.082Z,-0.20
2023-02-04T02:01:54.161Z,-0.18
2023-02-04T02:04:31.326Z,-0.21
2023-02-04T02:07:04.989Z,-0.19
2023-02-04T02:09:33.286Z,-0.28
2023-02-04T02:12:02.088Z,-0.25
2023-02-04T02:14:29.129Z,-0.26
2023-02-04T02:16:57.706Z,-0.27
2023-02-04T02:19:33.620Z,-0.32
2023-02-04T02:22:08.264Z,-0.34
2023-02-04T02:24:35.373Z,-0.43
2023-02-04T02:27:07.685Z,-0.45
2023-02-04T02:29:36.520Z,-0.49
2023-02-04T02:32:04.925Z,-0.49
2023-02-04T02:34:33.219Z,-0.52
2023-02-04T02:37:03.523Z,-0.57
2023-02-04T02:39:30.349Z,-0.53
2023-02-04T02:41:58.751Z,-0.56
2023-02-04T02:44:26.427Z,-0.57
2023-02-04T02:46:54.712Z,-0.53
2023-02-04T02:49:25.767Z,-0.57
2023-02-04T02:51:53.458Z,-0.59
2023-02-04T02:54:30.226Z,-0.59
2023-02-04T02:56:59.657Z,-0.61
2023-02-04T02:59:27.118Z,-0.60
2023-02-04T03:02:00.054Z,-0.60
2023-02-04T03:04:29.797Z,-0.61
2023-02-04T03:06:57.048Z,-0.61
2023-02-04T03:09:26.331Z,-0.60
2023-02-04T03:11:53.628Z,-0.57
2023-02-04T03:14:21.968Z,-0.57
2023-02-04T03:16:48.940Z,-0.57
2023-02-04T03:19:15.914Z,-0.58
2023-02-04T03:21:47.600Z,-0.55
2023-02-04T03:24:14.713Z,-0.52
2023-02-04T03:26:41.797Z,-0.56
2023-02-04T03:29:09.686Z,-0.62
2023-02-04T03:31:37.845Z,-0.62
2023-02-04T03:34:04.965Z,-0.69
2023-02-04T03:36:32.182Z,-0.69
2023-02-04T03:38:59.036Z,-0.72
2023-02-04T03:41:28.155Z,-0.72
2023-02-04T03:43:55.732Z,-0.71
2023-02-04T03:46:25.395Z,-0.71
2023-02-04T03:48:52.463Z,-0.69
2023-02-04T03:51:19.426Z,-0.71
2023-02-04T03:53:46.295Z,-0.70
2023-02-04T03:56:13.170Z,-0.72
2023-02-04T03:58:40.256Z,-0.73
2023-02-04T04:01:07.344Z,-0.73
2023-02-04T04:03:33.909Z,-0.73
2023-02-04T04:06:00.965Z,-0.77
2023-02-04T04:08:27.752Z,-0.76
2023-02-04T04:10:54.359Z,-0.76
2023-02-04T04:13:21.324Z,-0.71
2023-02-04T04:15:47.988Z,-0.68
2023-02-04T04:18:19.277Z,-0.71
2023-02-04T04:20:46.214Z,-0.65
2023-02-04T04:23:13.004Z,-0.67
2023-02-04T04:25:39.965Z,-0.64
2023-02-04T04:28:07.075Z,-0.63
2023-02-04T04:30:34.339Z,-0.66
2023-02-04T04:33:01.535Z,-0.64
2023-02-04T04:35:28.770Z,-0.64
2023-02-04T04:37:55.857Z,-0.66
2023-02-04T04:40:22.849Z,-0.61
2023-02-04T04:42:49.965Z,-0.63
2023-02-04T04:45:17.049Z,-0.66
2023-02-04T04:47:43.678Z,-0.64
2023-02-04T04:50:11.030Z,-0.66
2023-02-04T04:52:38.047Z,-0.73
2023-02-04T04:55:06.271Z,-0.76
2023-02-04T04:57:33.159Z,-0.77
2023-02-04T05:00:00.310Z,-0.79
2023-02-04T05:02:27.323Z,-0.75
2023-02-04T05:04:54.531Z,-0.77
2023-02-04T05:07:21.466Z,-0.76
2023-02-04T05:09:48.639Z,-0.77
2023-02-04T05:12:15.521Z,-0.74
2023-02-04T05:14:42.312Z,-0.76
2023-02-04T05:17:09.046Z,-0.75
2023-02-04T05:19:36.533Z,-0.73
2023-02-04T05:22:03.412Z,-0.79
2023-02-04T05:24:30.496Z,-0.78
2023-02-04T05:26:57.431Z,-0.79
2023-02-04T05:29:24.445Z,-0.83
2023-02-04T05:31:51.572Z,-0.83
2023-02-04T05:34:20.642Z,-0.81
2023-02-04T05:36:47.765Z,-0.83
2023-02-04T05:39:14.760Z,-0.83
2023-02-04T05:41:41.767Z,-0.84
2023-02-04T05:44:08.976Z,-0.82
2023-02-04T05:46:36.652Z,-0.85
2023-02-04T05:49:03.923Z,-0.80
2023-02-04T05:51:31.059Z,-0.79
2023-02-04T05:53:58.429Z,-0.79
2023-02-04T05:56:25.357Z,-0.79
2023-02-04T05:58:52.322Z,-0.81
2023-02-04T06:01:19.651Z,-0.80
2023-02-04T06:03:46.460Z,-0.80
2023-02-04T06:06:23.376Z,-0.84
2023-02-04T06:08:50.496Z,-0.84
2023-02-04T06:14:31.771Z,-0.79
2023-02-04T06:16:59.545Z,-0.79
2023-02-04T06:19:26.609Z,-0.81
2023-02-04T06:21:53.707Z,-0.78
2023-02-04T06:24:20.813Z,-0.75
2023-02-04T06:26:48.875Z,-0.75
2023-02-04T06:29:15.974Z,-0.74
2023-02-04T06:31:44.221Z,-0.72
2023-02-04T06:37:51.221Z,-0.74
2023-02-04T06:40:18.130Z,-0.78
2023-02-04T06:42:45.146Z,-0.76
2023-02-04T06:45:12.346Z,-0.79
2023-02-04T06:54:17.359Z,-0.88
2023-02-04T07:00:13.080Z,-0.97
2023-02-04T07:02:42.177Z,-0.95
2023-02-04T07:05:12.345Z,-1.04
2023-02-04T07:07:40.032Z,-1.04
2023-02-04T07:13:44.731Z,-1.14
2023-02-04T07:16:41.007Z,-1.13
2023-02-04T07:45:39.894Z,-1.04
2023-02-04T07:48:11.608Z,-1.06
2023-02-04T07:50:38.620Z,-1.06
2023-02-04T07:53:05.541Z,-1.06
2023-02-04T07:55:32.384Z,-1.09
2023-02-04T07:57:59.674Z,-1.07
2023-02-04T08:00:26.585Z,-1.11
2023-02-04T08:02:53.462Z,-1.14
2023-02-04T08:05:20.421Z,-1.21
2023-02-04T08:08:33.945Z,-1.17
2023-02-04T08:11:21.036Z,-1.16
2023-02-04T08:14:08.408Z,-1.15
2023-02-04T08:16:35.428Z,-1.20
2023-02-04T08:19:02.045Z,-1.20
2023-02-04T08:21:28.952Z,-1.27
2023-02-04T08:23:56.132Z,-1.29
2023-02-04T08:40:21.475Z,-1.30
2023-02-04T08:42:52.487Z,-1.19
2023-02-04T08:45:24.681Z,-1.20
2023-02-04T08:48:02.943Z,-1.23
2023-02-04T08:50:30.802Z,-1.18
2023-02-04T08:52:59.642Z,-1.11
2023-02-04T09:25:31.957Z,-0.95
2023-02-04T09:28:01.085Z,-0.87
2023-02-04T09:30:30.126Z,-0.80
2023-02-04T09:32:57.284Z,-0.72
2023-02-04T09:35:25.673Z,-0.66
2023-02-04T09:37:57.452Z,-0.61
2023-02-04T09:40:27.113Z,-0.48
2023-02-04T09:42:56.291Z,-0.38
2023-02-04T09:45:46.367Z,-0.30
2023-02-04T09:56:32.818Z,-0.29
2023-02-04T09:59:00.118Z,-0.34
2023-02-04T10:01:30.013Z,-0.31
2023-02-04T10:04:01.335Z,-0.18
2023-02-04T10:06:28.134Z,0.15
2023-02-04T10:12:33.170Z,0.29
2023-02-04T10:18:48.034Z,0.84
2023-02-04T10:21:28.526Z,0.66
2023-02-04T10:24:01.566Z,0.95
2023-02-04T10:26:32.010Z,1.03
2023-02-04T10:29:04.963Z,0.80
2023-02-04T10:31:53.152Z,0.94
2023-02-04T10:34:56.031Z,1.71
2023-02-04T10:37:22.991Z,1.39
2023-02-04T10:58:35.082Z,0.67
2023-02-04T11:01:02.080Z,0.67
2023-02-04T11:03:30.237Z,0.66
2023-02-04T11:06:00.259Z,0.51
2023-02-04T11:08:37.131Z,0.46
2023-02-04T11:11:06.309Z,0.35
2023-02-04T11:14:03.815Z,0.17
2023-02-04T11:16:35.015Z,0.07
2023-02-04T11:28:59.053Z,-0.15
2023-02-04T11:31:52.838Z,-0.17
2023-02-04T11:34:19.745Z,-0.18
2023-02-04T11:40:25.700Z,0.11
2023-02-04T11:43:13.090Z,0.06
2023-02-04T11:46:09.720Z,0.05
2023-02-04T11:49:24.905Z,0.02
2023-02-04T12:00:31.826Z,-0.05
2023-02-04T12:03:42.280Z,-0.05
2023-02-04T12:06:39.707Z,-0.07
2023-02-04T12:16:05.333Z,0.06
2023-02-04T12:33:37.284Z,-0.11
2023-02-04T12:54:14.445Z,-0.03
2023-02-04T12:56:45.896Z,-0.06
2023-02-04T13:36:59.067Z,-0.21
2023-02-04T13:39:30.868Z,-0.13
2023-02-04T13:41:57.818Z,-0.13
2023-02-04T13:44:27.000Z,-0.16
2023-02-04T13:46:54.058Z,-0.23
2023-02-04T13:49:21.343Z,-0.24
2023-02-04T13:51:47.944Z,-0.30
2023-02-04T13:54:14.897Z,-0.34
2023-02-04T13:56:41.684Z,-0.39
2023-02-04T13:59:08.577Z,-0.43
2023-02-04T14:01:35.726Z,-0.47
2023-02-04T14:04:02.961Z,-0.51
2023-02-04T14:06:33.857Z,-0.50
2023-02-04T14:09:00.975Z,-0.55
2023-02-04T14:11:35.333Z,-0.57
2023-02-04T14:14:02.248Z,-0.61
2023-02-04T14:16:29.075Z,-0.61
2023-02-04T14:18:55.586Z,-0.48
2023-02-04T14:21:25.222Z,-0.23
2023-02-04T14:31:48.858Z,-0.08
2023-02-04T14:34:47.333Z,-0.19
2023-02-04T14:52:20.980Z,-0.45
2023-02-04T15:10:22.550Z,-0.53
2023-02-04T16:13:57.664Z,-1.05
2023-02-04T16:59:44.361Z,-1.21
2023-02-04T17:03:20.443Z,-1.23
2023-02-04T17:11:21.157Z,-1.24
2023-02-04T17:21:48.740Z,-1.20
2023-02-04T17:28:00.333Z,-1.22
2023-02-04T17:38:06.012Z,-1.22
2023-02-04T17:40:57.400Z,-1.23
2023-02-04T17:43:26.852Z,-1.22
2023-02-04T18:07:11.940Z,-1.28
2023-02-04T18:39:30.449Z,-1.48
2023-02-04T18:41:59.278Z,-1.48
2023-02-04T18:44:40.593Z,-1.49
2023-02-04T18:50:49.612Z,-1.47
2023-02-04T18:53:26.755Z,-1.49
2023-02-04T18:55:59.877Z,-1.46
2023-02-04T18:58:38.716Z,-1.48
2023-02-04T19:01:16.909Z,-1.48
2023-02-04T19:04:03.851Z,-1.48
2023-02-04T19:06:37.636Z,-1.52
2023-02-04T19:09:24.745Z,-1.57
2023-02-04T19:12:22.422Z,-1.62
2023-02-04T20:29:10.174Z,-1.66
2023-02-04T20:33:07.093Z,-1.69
2023-02-04T20:40:28.464Z,-1.66
2023-02-04T20:55:12.089Z,-1.60
2023-02-04T20:58:53.689Z,-1.60
2023-02-04T21:02:48.199Z,-1.63
2023-02-04T21:06:24.336Z,-1.68
2023-02-04T21:10:11.085Z,-1.70
2023-02-04T21:13:48.109Z,-1.73
2023-02-04T21:17:27.189Z,-1.70
2023-02-04T21:21:20.150Z,-1.65
2023-02-04T21:25:05.101Z,-1.64
2023-02-04T22:13:49.161Z,-1.66
2023-02-04T22:17:22.044Z,-1.64
2023-02-04T22:21:01.194Z,-1.66
2023-02-04T22:24:37.111Z,-1.66
2023-02-04T22:28:36.212Z,-1.68
2023-02-04T22:31:56.098Z,-1.68
2023-02-04T22:38:29.987Z,-1.73
2023-02-04T22:40:59.089Z,-1.77
2023-02-04T22:43:28.190Z,-1.76
2023-02-04T22:45:56.685Z,-1.72
2023-02-04T22:48:25.323Z,-1.70
2023-02-04T22:50:55.618Z,-1.68
2023-02-04T22:53:24.507Z,-1.66
2023-02-04T22:55:53.000Z,-1.66
2023-02-04T22:58:21.540Z,-1.64
2023-02-04T23:00:50.060Z,-1.67
2023-02-04T23:03:18.438Z,-1.68
2023-02-04T23:05:50.688Z,-1.68
2023-02-04T23:08:20.736Z,-1.69
2023-02-04T23:10:50.539Z,-1.71
